Time;durP1;ratioP1;P1;durP2;ratioP2;P2;SDS_P1;SDS_P2;PMS_P1;PMS_P2;Temp;Humidity;BMP_temperature;BMP_pressure;BME280_temperature;BME280_humidity;BME280_pressure;Samples;Min_cycle;Max_cycle;Signal;HPM_P1;HPM_P2
2022/09/25 00:00:45;;;;;;;;;;;13.60;99.90;;;;;;4868492;29;19920;-76
2022/09/25 00:03:11;;;;;;;;;;;13.60;99.90;;;;;;4868383;29;19923;-76
2022/09/25 00:05:37;;;;;;;;;;;13.60;99.90;;;;;;4869454;29;19992;-76
2022/09/25 00:08:03;;;;;;;;;;;13.50;99.90;;;;;;4868101;29;19944;-76
2022/09/25 00:10:29;;;;;;;;;;;13.50;99.90;;;;;;4868414;29;20242;-77
2022/09/25 00:12:55;;;;;;;;;;;13.50;99.90;;;;;;4869140;29;20159;-77
2022/09/25 00:15:21;;;;;;;;;;;13.50;99.90;;;;;;4868375;29;19960;-76
2022/09/25 00:17:46;;;;;;;;;;;13.50;99.90;;;;;;4868880;29;19912;-77
2022/09/25 00:20:13;;;;;;;;;;;13.50;99.90;;;;;;4871501;29;19920;-76
2022/09/25 00:22:38;;;;;;;;;;;13.60;99.90;;;;;;4871662;29;20018;-77
2022/09/25 00:25:04;;;;;;;;;;;13.60;99.90;;;;;;4871050;29;19912;-77
2022/09/25 00:27:31;;;;;;;;;;;13.50;99.90;;;;;;4872278;29;19920;-77
2022/09/25 00:29:58;;;;;;;;;;;13.50;99.90;;;;;;4871240;29;20111;-77
2022/09/25 00:32:24;;;;;;;;;;;13.40;99.90;;;;;;4872566;29;19920;-77
2022/09/25 00:34:49;;;;;;;;;;;13.40;99.90;;;;;;4870518;29;19960;-77
2022/09/25 00:37:15;;;;;;;;;;;13.40;99.90;;;;;;4872158;29;19912;-77
2022/09/25 00:39:41;;;;;;;;;;;13.50;99.90;;;;;;4872361;29;19912;-77
2022/09/25 00:42:06;;;;;;;;;;;13.40;99.90;;;;;;4871361;29;19948;-77
2022/09/25 00:44:55;;;;;;;;;;;13.40;99.90;;;;;;4871179;29;19920;-77
2022/09/25 00:47:24;;;;;;;;;;;13.50;99.90;;;;;;4871472;29;20210;-77
2022/09/25 00:49:49;;;;;;;;;;;13.50;99.90;;;;;;4902098;29;19928;-77
2022/09/25 00:52:15;;;;;;;;;;;13.50;99.90;;;;;;4854907;29;19912;-77
2022/09/25 00:54:46;;;;;;;;;;;13.50;99.90;;;;;;4871167;29;19912;-77
2022/09/25 00:57:13;;;;;;;;;;;13.50;99.90;;;;;;4869957;29;19912;-77
2022/09/25 00:59:41;;;;;;;;;;;13.50;99.90;;;;;;4855653;29;20150;-77
2022/09/25 01:02:07;;;;;;;;;;;13.50;99.90;;;;;;4870573;29;19919;-77
2022/09/25 01:04:33;;;;;;;;;;;13.40;99.90;;;;;;4870168;29;19944;-77
2022/09/25 01:06:59;;;;;;;;;;;13.40;99.90;;;;;;4870532;29;19927;-77
2022/09/25 01:09:26;;;;;;;;;;;13.40;99.90;;;;;;4866909;29;19912;-77
2022/09/25 01:11:53;;;;;;;;;;;13.30;99.90;;;;;;4882983;29;19935;-77
2022/09/25 01:14:19;;;;;;;;;;;13.30;99.90;;;;;;4866225;29;20238;-77
2022/09/25 01:16:52;;;;;;;;;;;13.30;99.90;;;;;;4871562;29;19912;-77
2022/09/25 01:19:36;;;;;;;;;;;13.30;99.90;;;;;;4869849;29;20092;-77
2022/09/25 01:22:21;;;;;;;;;;;13.20;99.90;;;;;;4901634;29;19912;-76
2022/09/25 01:25:03;;;;;;;;;;;13.20;99.90;;;;;;4869635;29;19912;-77
2022/09/25 01:27:46;;;;;;;;;;;13.20;99.90;;;;;;4870419;29;20179;-76
2022/09/25 01:30:12;;;;;;;;;;;13.10;99.90;;;;;;4870033;29;19920;-76
2022/09/25 01:32:54;;;;;;;;;;;13.10;99.90;;;;;;4885988;29;19919;-76
2022/09/25 01:35:42;;;;;;;;;;;13.10;99.90;;;;;;4870415;29;19920;-76
2022/09/25 01:38:15;;;;;;;;;;;13.10;99.90;;;;;;4915271;23;19923;-72
2022/09/25 01:40:51;;;;;;;;;;;13.10;99.90;;;;;;4905820;29;19911;-71
2022/09/25 01:43:25;;;;;;;;;;;13.10;99.90;;;;;;4890605;29;19930;-71
2022/09/25 01:46:25;;;;;;;;;;;13.10;99.90;;;;;;4873827;29;19912;-72
2022/09/25 01:48:54;;;;;;;;;;;13.20;99.90;;;;;;4858547;29;19940;-72
2022/09/25 01:51:25;;;;;;;;;;;13.20;99.90;;;;;;4871268;29;20360;-72
2022/09/25 01:53:53;;;;;;;;;;;13.20;99.90;;;;;;4885971;29;20015;-71
2022/09/25 01:56:30;;;;;;;;;;;13.20;99.90;;;;;;4903839;29;19919;-71
2022/09/25 01:58:58;;;;;;;;;;;13.20;99.90;;;;;;4888629;29;19978;-71
2022/09/25 02:01:29;;;;;;;;;;;13.20;99.90;;;;;;4888128;29;20238;-71
2022/09/25 02:04:00;;;;;;;;;;;13.20;99.90;;;;;;4888542;29;19937;-71
2022/09/25 02:06:25;;;;;;;;;;;13.30;99.90;;;;;;4888332;29;19987;-71
2022/09/25 02:08:55;;;;;;;;;;;13.30;99.90;;;;;;4888489;29;19915;-71
2022/09/25 02:11:21;;;;;;;;;;;13.30;99.90;;;;;;4889277;29;19912;-71
2022/09/25 02:14:09;;;;;;;;;;;13.30;99.90;;;;;;4887978;29;19926;-71
2022/09/25 02:16:36;;;;;;;;;;;13.30;99.90;;;;;;4888678;29;19974;-71
2022/09/25 02:22:03;;;;;;;;;;;13.30;99.90;;;;;;4889303;29;20015;-71
2022/09/25 02:24:32;;;;;;;;;;;13.30;99.90;;;;;;4889413;29;19920;-71
2022/09/25 02:26:58;;;;;;;;;;;13.30;99.90;;;;;;4887676;29;19920;-70
2022/09/25 02:29:24;;;;;;;;;;;13.30;99.90;;;;;;4889047;29;19919;-72
2022/09/25 02:31:49;;;;;;;;;;;13.30;99.90;;;;;;4889273;29;19911;-71
2022/09/25 02:34:15;;;;;;;;;;;13.40;99.90;;;;;;4889174;29;19918;-71
2022/09/25 02:36:42;;;;;;;;;;;13.40;99.90;;;;;;4877706;29;19912;-71
2022/09/25 02:39:07;;;;;;;;;;;13.40;99.90;;;;;;4869496;29;19924;-71
2022/09/25 02:41:48;;;;;;;;;;;13.40;99.90;;;;;;4869969;29;20274;-71
2022/09/25 02:44:45;;;;;;;;;;;13.40;99.90;;;;;;4868979;29;19969;-70
2022/09/25 02:47:31;;;;;;;;;;;13.40;99.90;;;;;;4869452;29;20210;-71
2022/09/25 02:50:12;;;;;;;;;;;13.40;99.90;;;;;;4870324;29;20152;-71
2022/09/25 02:53:01;;;;;;;;;;;13.40;99.90;;;;;;4869386;29;19918;-71
2022/09/25 02:55:32;;;;;;;;;;;13.40;99.90;;;;;;4869344;29;19919;-70
2022/09/25 02:58:38;;;;;;;;;;;13.30;99.90;;;;;;4869929;29;19912;-72
2022/09/25 03:01:04;;;;;;;;;;;13.30;99.90;;;;;;4868824;29;19912;-71
2022/09/25 03:03:30;;;;;;;;;;;13.20;99.90;;;;;;4868876;29;19916;-72
2022/09/25 03:05:56;;;;;;;;;;;13.20;99.90;;;;;;4870167;29;19979;-72
2022/09/25 03:08:37;;;;;;;;;;;13.10;99.90;;;;;;4868775;29;19920;-71
2022/09/25 03:11:07;;;;;;;;;;;13.10;99.90;;;;;;4869160;29;19912;-70
2022/09/25 03:13:33;;;;;;;;;;;13.10;99.90;;;;;;4869115;29;20232;-71
2022/09/25 03:16:14;;;;;;;;;;;13.10;99.90;;;;;;4874337;29;19912;-71
2022/09/25 03:18:40;;;;;;;;;;;13.00;99.90;;;;;;4887413;29;19912;-72
2022/09/25 03:21:06;;;;;;;;;;;13.00;99.90;;;;;;4887420;29;19912;-72
2022/09/25 03:23:31;;;;;;;;;;;13.10;99.90;;;;;;4871889;29;19928;-72
2022/09/25 03:25:57;;;;;;;;;;;13.10;99.90;;;;;;4887511;29;19922;-72
2022/09/25 03:28:23;;;;;;;;;;;13.10;99.90;;;;;;4887390;29;19915;-71
2022/09/25 03:31:00;;;;;;;;;;;13.10;99.90;;;;;;4884042;29;19983;-73
2022/09/25 03:33:35;;;;;;;;;;;13.10;99.90;;;;;;4877026;29;19916;-72
2022/09/25 03:36:12;;;;;;;;;;;13.20;99.90;;;;;;4881354;29;19916;-72
2022/09/25 03:38:40;;;;;;;;;;;13.20;99.90;;;;;;4875893;29;19987;-71
2022/09/25 03:41:07;;;;;;;;;;;13.20;99.90;;;;;;4898414;29;19912;-72
2022/09/25 03:43:36;;;;;;;;;;;13.20;99.90;;;;;;4888380;29;19916;-71
2022/09/25 03:46:03;;;;;;;;;;;13.20;99.90;;;;;;4885377;29;20151;-71
2022/09/25 03:48:29;;;;;;;;;;;13.20;99.90;;;;;;4872122;29;19983;-71
2022/09/25 03:50:55;;;;;;;;;;;13.20;99.90;;;;;;4870128;29;20226;-72
2022/09/25 03:53:21;;;;;;;;;;;13.20;99.90;;;;;;4870928;29;19919;-71
2022/09/25 03:55:47;;;;;;;;;;;13.20;99.90;;;;;;4873456;29;19920;-73
2022/09/25 03:58:16;;;;;;;;;;;13.20;99.90;;;;;;4883706;29;20233;-72
2022/09/25 04:00:43;;;;;;;;;;;13.20;99.90;;;;;;4887683;29;19928;-73
2022/09/25 04:03:08;;;;;;;;;;;13.20;99.90;;;;;;4906168;29;19916;-72
2022/09/25 04:05:35;;;;;;;;;;;13.20;99.90;;;;;;4905541;29;19954;-73
2022/09/25 04:08:01;;;;;;;;;;;13.20;99.90;;;;;;4889858;29;19911;-73
2022/09/25 04:10:26;;;;;;;;;;;13.30;99.90;;;;;;4889186;29;19916;-73
2022/09/25 04:12:54;;;;;;;;;;;13.30;99.90;;;;;;4871027;29;19931;-72
2022/09/25 04:15:23;;;;;;;;;;;13.20;99.90;;;;;;4882775;29;19916;-72
2022/09/25 04:17:49;;;;;;;;;;;13.20;99.90;;;;;;4888298;29;20110;-71
2022/09/25 04:20:15;;;;;;;;;;;13.20;99.90;;;;;;4877267;29;19964;-71
2022/09/25 04:22:41;;;;;;;;;;;13.20;99.90;;;;;;4887283;29;19916;-73
2022/09/25 04:25:08;;;;;;;;;;;13.20;99.90;;;;;;4891423;29;19919;-72
2022/09/25 04:27:33;;;;;;;;;;;13.20;99.90;;;;;;4888702;29;19956;-72
2022/09/25 04:30:00;;;;;;;;;;;13.10;99.90;;;;;;4888432;29;19947;-71
2022/09/25 04:35:10;;;;;;;;;;;13.10;99.90;;;;;;4880126;29;19963;-72
2022/09/25 04:37:36;;;;;;;;;;;13.10;99.90;;;;;;4885403;29;19919;-73
2022/09/25 04:40:02;;;;;;;;;;;13.00;99.90;;;;;;4885960;29;19966;-71
2022/09/25 04:42:27;;;;;;;;;;;13.00;99.90;;;;;;4884013;29;19916;-71
2022/09/25 04:44:54;;;;;;;;;;;13.00;99.90;;;;;;4885653;29;20011;-72
2022/09/25 04:47:21;;;;;;;;;;;13.00;99.90;;;;;;4889167;29;19956;-72
2022/09/25 04:49:47;;;;;;;;;;;13.00;99.90;;;;;;4884679;29;19931;-72
2022/09/25 04:52:16;;;;;;;;;;;13.00;99.90;;;;;;4889803;29;19912;-72
2022/09/25 04:54:42;;;;;;;;;;;12.90;99.90;;;;;;4890785;29;19919;-71
2022/09/25 04:57:08;;;;;;;;;;;13.00;99.90;;;;;;4890700;29;19919;-72
2022/09/25 04:59:34;;;;;;;;;;;12.90;99.90;;;;;;4877984;29;20279;-71
2022/09/25 05:02:00;;;;;;;;;;;12.90;99.90;;;;;;4890800;29;19916;-72
2022/09/25 05:04:25;;;;;;;;;;;12.90;99.90;;;;;;4883653;29;19956;-71
2022/09/25 05:06:51;;;;;;;;;;;12.90;99.90;;;;;;4890254;29;19979;-71
2022/09/25 05:09:17;;;;;;;;;;;12.90;99.90;;;;;;4890527;29;19919;-72
2022/09/25 05:11:44;;;;;;;;;;;12.80;99.90;;;;;;4881093;29;20203;-71
2022/09/25 05:14:10;;;;;;;;;;;12.80;99.90;;;;;;4874285;29;20207;-72
2022/09/25 05:16:35;;;;;;;;;;;12.80;99.90;;;;;;4888065;29;19951;-72
2022/09/25 05:19:01;;;;;;;;;;;12.90;99.90;;;;;;4883196;29;19916;-71
2022/09/25 05:21:27;;;;;;;;;;;12.90;99.90;;;;;;4884985;29;19920;-71
2022/09/25 05:23:53;;;;;;;;;;;12.80;99.90;;;;;;4884341;29;19924;-73
2022/09/25 05:26:20;;;;;;;;;;;12.80;99.90;;;;;;4870583;29;19918;-73
2022/09/25 05:28:48;;;;;;;;;;;12.80;99.90;;;;;;4886590;29;20155;-74
2022/09/25 05:31:13;;;;;;;;;;;12.80;99.90;;;;;;4873189;29;20194;-71
2022/09/25 05:33:39;;;;;;;;;;;12.80;99.90;;;;;;4890543;29;19975;-71
2022/09/25 05:36:06;;;;;;;;;;;12.80;99.90;;;;;;4888087;29;19978;-70
2022/09/25 05:38:32;;;;;;;;;;;12.80;99.90;;;;;;4900108;29;20125;-72
2022/09/25 05:41:04;;;;;;;;;;;12.80;99.90;;;;;;4904186;29;19951;-71
2022/09/25 05:43:30;;;;;;;;;;;12.80;99.90;;;;;;4886529;29;19987;-71
2022/09/25 05:45:56;;;;;;;;;;;12.80;99.90;;;;;;4888668;29;19941;-72
2022/09/25 05:48:22;;;;;;;;;;;12.80;99.90;;;;;;4890714;29;19995;-71
2022/09/25 05:50:54;;;;;;;;;;;12.90;99.90;;;;;;4883114;29;19916;-71
2022/09/25 05:53:20;;;;;;;;;;;12.90;99.90;;;;;;4903184;29;19923;-72
2022/09/25 05:55:52;;;;;;;;;;;12.90;99.90;;;;;;4889889;29;19912;-73
2022/09/25 05:58:18;;;;;;;;;;;12.90;99.90;;;;;;4883507;29;19979;-72
2022/09/25 06:00:44;;;;;;;;;;;13.00;99.90;;;;;;4882357;29;19916;-72
2022/09/25 06:03:10;;;;;;;;;;;13.00;99.90;;;;;;4880773;29;20127;-72
2022/09/25 06:05:37;;;;;;;;;;;13.00;99.90;;;;;;4883880;29;19919;-72
2022/09/25 06:08:02;;;;;;;;;;;13.00;99.90;;;;;;4879607;29;19919;-72
2022/09/25 06:10:29;;;;;;;;;;;13.00;99.90;;;;;;4880337;29;20078;-71
2022/09/25 06:12:57;;;;;;;;;;;13.00;99.90;;;;;;4887160;29;19919;-73
2022/09/25 06:15:26;;;;;;;;;;;13.00;99.90;;;;;;4877254;29;19943;-73
2022/09/25 06:17:53;;;;;;;;;;;13.00;99.90;;;;;;4885935;29;19942;-73
2022/09/25 06:20:20;;;;;;;;;;;13.00;99.90;;;;;;4877605;29;19915;-72
2022/09/25 06:22:53;;;;;;;;;;;13.10;99.90;;;;;;4886378;29;19955;-73
2022/09/25 06:25:19;;;;;;;;;;;13.10;99.90;;;;;;4876996;29;19919;-73
2022/09/25 06:27:44;;;;;;;;;;;13.00;99.90;;;;;;4872697;29;20226;-73
2022/09/25 06:30:10;;;;;;;;;;;13.00;99.90;;;;;;4883405;29;19916;-74
2022/09/25 06:32:37;;;;;;;;;;;13.00;99.90;;;;;;4887811;29;19911;-73
2022/09/25 06:35:03;;;;;;;;;;;13.10;99.90;;;;;;4881694;29;19930;-74
2022/09/25 06:37:29;;;;;;;;;;;13.10;99.90;;;;;;4869536;29;19915;-72
2022/09/25 06:39:54;;;;;;;;;;;13.10;99.90;;;;;;4877931;29;20226;-73
2022/09/25 06:42:20;;;;;;;;;;;13.10;99.90;;;;;;4877034;29;20226;-72
2022/09/25 06:44:46;;;;;;;;;;;13.10;99.90;;;;;;4872763;29;19982;-74
2022/09/25 06:47:12;;;;;;;;;;;13.20;99.90;;;;;;4875020;29;19924;-73
2022/09/25 06:49:37;;;;;;;;;;;13.10;99.90;;;;;;4886273;29;20214;-74
2022/09/25 06:52:03;;;;;;;;;;;13.10;99.90;;;;;;4873486;29;19953;-74
2022/09/25 06:54:30;;;;;;;;;;;13.10;99.90;;;;;;4871651;29;19916;-74
2022/09/25 06:56:55;;;;;;;;;;;13.20;99.90;;;;;;4887505;29;20122;-75
2022/09/25 06:59:21;;;;;;;;;;;13.20;99.90;;;;;;4882431;29;19927;-75
2022/09/25 07:01:46;;;;;;;;;;;13.20;99.90;;;;;;4881626;29;19924;-73
2022/09/25 07:04:12;;;;;;;;;;;13.20;99.90;;;;;;4881250;29;19928;-73
2022/09/25 07:06:38;;;;;;;;;;;13.20;99.90;;;;;;4881665;29;19912;-73
2022/09/25 07:09:03;;;;;;;;;;;13.20;99.90;;;;;;4882795;29;19939;-74
2022/09/25 07:11:30;;;;;;;;;;;13.20;99.90;;;;;;4881876;29;19951;-73
2022/09/25 07:13:56;;;;;;;;;;;13.20;99.90;;;;;;4859737;29;19912;-74
2022/09/25 07:16:25;;;;;;;;;;;13.20;99.90;;;;;;4869015;29;19977;-74
2022/09/25 07:18:56;;;;;;;;;;;13.30;99.90;;;;;;4853933;29;19912;-73
2022/09/25 07:21:23;;;;;;;;;;;13.30;99.90;;;;;;4853815;29;19914;-72
2022/09/25 07:23:49;;;;;;;;;;;13.30;99.90;;;;;;4869997;29;19917;-73
2022/09/25 07:26:21;;;;;;;;;;;13.30;99.90;;;;;;4875424;29;20219;-72
2022/09/25 07:28:57;;;;;;;;;;;13.40;99.90;;;;;;4886493;29;19931;-72
2022/09/25 07:31:28;;;;;;;;;;;13.40;99.90;;;;;;4877180;29;19916;-73
2022/09/25 07:33:54;;;;;;;;;;;13.50;99.90;;;;;;4880562;29;20233;-76
2022/09/25 07:36:19;;;;;;;;;;;13.50;99.90;;;;;;4872486;29;19912;-76
2022/09/25 07:38:51;;;;;;;;;;;13.50;99.90;;;;;;4872987;29;19940;-76
2022/09/25 07:41:17;;;;;;;;;;;13.60;99.90;;;;;;4882984;29;19998;-75
2022/09/25 07:43:43;;;;;;;;;;;13.60;99.90;;;;;;4888275;29;19934;-72
2022/09/25 07:46:09;;;;;;;;;;;13.60;99.90;;;;;;4888884;29;20274;-72
2022/09/25 07:48:35;;;;;;;;;;;13.60;99.90;;;;;;4890786;29;20213;-73
2022/09/25 07:51:01;;;;;;;;;;;13.60;99.90;;;;;;4886245;29;20032;-73
2022/09/25 07:53:27;;;;;;;;;;;13.60;99.90;;;;;;4884893;29;19924;-72
2022/09/25 07:56:00;;;;;;;;;;;13.60;99.90;;;;;;4880372;29;19987;-72
2022/09/25 07:58:25;;;;;;;;;;;13.70;99.90;;;;;;4879312;29;19916;-71
2022/09/25 08:00:53;;;;;;;;;;;13.70;99.90;;;;;;4885924;29;19919;-70
2022/09/25 08:03:19;;;;;;;;;;;13.70;99.90;;;;;;4895185;29;19920;-71
2022/09/25 08:05:45;;;;;;;;;;;13.80;99.90;;;;;;4890556;29;20149;-71
2022/09/25 08:08:11;;;;;;;;;;;13.80;99.90;;;;;;4890393;29;19943;-72
2022/09/25 08:10:36;;;;;;;;;;;13.80;99.90;;;;;;4879880;29;19920;-73
2022/09/25 08:13:03;;;;;;;;;;;13.90;99.90;;;;;;4873395;29;19943;-71
2022/09/25 08:15:28;;;;;;;;;;;13.90;99.90;;;;;;4871804;29;19913;-70
2022/09/25 08:17:54;;;;;;;;;;;14.00;99.90;;;;;;4872753;29;19912;-76
2022/09/25 08:20:20;;;;;;;;;;;14.00;99.90;;;;;;4876615;29;20036;-77
2022/09/25 08:22:46;;;;;;;;;;;14.10;99.90;;;;;;4910014;29;19924;-76
2022/09/25 08:25:12;;;;;;;;;;;14.20;99.90;;;;;;4894425;29;19973;-76
2022/09/25 08:27:42;;;;;;;;;;;14.30;99.90;;;;;;4879091;29;20274;-76
2022/09/25 08:30:08;;;;;;;;;;;14.30;99.90;;;;;;4884940;29;19926;-77
2022/09/25 08:32:35;;;;;;;;;;;14.40;99.90;;;;;;4870805;29;19916;-76
2022/09/25 08:35:01;;;;;;;;;;;14.50;99.90;;;;;;4893289;29;19926;-76
2022/09/25 08:37:27;;;;;;;;;;;14.50;99.90;;;;;;4887850;29;19928;-76
2022/09/25 08:39:53;;;;;;;;;;;14.60;99.90;;;;;;4858466;29;20109;-70
2022/09/25 08:42:28;;;;;;;;;;;14.70;99.90;;;;;;4872478;29;19919;-70
2022/09/25 08:50:23;;;;;;;;;;;15.00;99.90;;;;;;4888217;29;19995;-70
2022/09/25 08:52:51;;;;;;;;;;;15.10;99.90;;;;;;4902089;29;20203;-69
2022/09/25 08:56:13;;;;;;;;;;;15.10;99.90;;;;;;4887850;29;19924;-69
2022/09/25 08:58:33;;;;;;;;;;;15.10;99.90;;;;;;4895302;29;19936;-69
2022/09/25 09:01:02;;;;;;;;;;;15.00;99.90;;;;;;4885619;29;19916;-69
2022/09/25 09:03:29;;;;;;;;;;;15.00;99.90;;;;;;4871427;29;19923;-70
2022/09/25 09:06:06;;;;;;;;;;;15.00;99.90;;;;;;4868261;29;19943;-70
2022/09/25 09:08:33;;;;;;;;;;;14.90;99.90;;;;;;4871056;29;19923;-69
2022/09/25 09:11:04;;;;;;;;;;;14.90;99.90;;;;;;4871147;29;19969;-70
2022/09/25 09:13:34;;;;;;;;;;;14.90;99.90;;;;;;4876124;29;19916;-70
2022/09/25 09:16:02;;;;;;;;;;;14.90;99.90;;;;;;4881614;29;20231;-71
2022/09/25 09:18:29;;;;;;;;;;;14.90;99.90;;;;;;4879623;29;19912;-70
2022/09/25 09:20:56;;;;;;;;;;;14.90;99.90;;;;;;4876347;29;19920;-70
2022/09/25 09:23:24;;;;;;;;;;;14.80;99.90;;;;;;4873990;29;19935;-71
2022/09/25 09:26:04;;;;;;;;;;;14.80;99.90;;;;;;4877320;29;19920;-71
2022/09/25 09:28:48;;;;;;;;;;;14.80;99.90;;;;;;4862068;29;20101;-71
2022/09/25 09:31:24;;;;;;;;;;;14.90;99.90;;;;;;4870974;29;19968;-71
2022/09/25 09:34:05;;;;;;;;;;;14.90;99.90;;;;;;4872897;29;19951;-70
2022/09/25 09:36:36;;;;;;;;;;;15.00;99.90;;;;;;4869989;29;19919;-70
2022/09/25 09:39:40;;;;;;;;;;;15.00;99.90;;;;;;4878254;29;19924;-70
2022/09/25 09:42:16;;;;;;;;;;;15.20;99.90;;;;;;4930722;29;19935;-70
2022/09/25 09:45:09;;;;;;;;;;;15.30;99.90;;;;;;4891702;29;19979;-71
2022/09/25 09:47:58;;;;;;;;;;;15.30;99.90;;;;;;4887852;29;20167;-69
2022/09/25 09:50:52;;;;;;;;;;;15.40;99.90;;;;;;4887223;29;19938;-71
2022/09/25 09:53:39;;;;;;;;;;;15.50;99.90;;;;;;4902294;29;19935;-71
2022/09/25 09:56:13;;;;;;;;;;;15.60;99.90;;;;;;4881683;29;20217;-71
2022/09/25 09:58:45;;;;;;;;;;;15.70;99.90;;;;;;4878513;29;19956;-71
2022/09/25 10:01:16;;;;;;;;;;;15.90;99.90;;;;;;4884024;29;19919;-71
2022/09/25 10:03:41;;;;;;;;;;;15.90;99.90;;;;;;4880940;29;19999;-71
2022/09/25 10:06:12;;;;;;;;;;;16.00;99.90;;;;;;4884456;29;19924;-70
2022/09/25 10:08:38;;;;;;;;;;;16.10;99.90;;;;;;4868667;29;20203;-71
2022/09/25 10:11:08;;;;;;;;;;;16.20;99.90;;;;;;4880091;29;19924;-71
2022/09/25 10:13:37;;;;;;;;;;;16.30;99.90;;;;;;4869321;29;19947;-71
2022/09/25 10:16:12;;;;;;;;;;;16.30;99.90;;;;;;4865678;29;19916;-71
2022/09/25 10:19:18;;;;;;;;;;;16.40;99.90;;;;;;4879305;29;19916;-71
2022/09/25 10:21:52;;;;;;;;;;;16.40;99.90;;;;;;4871262;29;20229;-71
2022/09/25 10:24:50;;;;;;;;;;;16.50;99.90;;;;;;4883863;29;19935;-70
2022/09/25 10:27:27;;;;;;;;;;;16.50;99.90;;;;;;4877606;29;19920;-71
2022/09/25 10:30:12;;;;;;;;;;;16.90;99.90;;;;;;4880498;29;19916;-70
2022/09/25 10:32:43;;;;;;;;;;;17.20;99.90;;;;;;4887101;29;19918;-70
2022/09/25 10:35:14;;;;;;;;;;;17.50;99.90;;;;;;4887137;29;19916;-71
2022/09/25 10:37:40;;;;;;;;;;;17.60;99.90;;;;;;4881044;29;19920;-71
2022/09/25 10:40:10;;;;;;;;;;;17.60;99.90;;;;;;4881760;29;19924;-71
2022/09/25 10:42:36;;;;;;;;;;;17.60;99.90;;;;;;4867562;29;20107;-71
2022/09/25 10:45:34;;;;;;;;;;;17.50;99.90;;;;;;4882494;29;19935;-70
2022/09/25 10:50:46;;;;;;;;;;;17.40;99.90;;;;;;4882111;29;20238;-71
2022/09/25 10:53:29;;;;;;;;;;;17.30;99.90;;;;;;4869553;29;20226;-71
2022/09/25 10:56:05;;;;;;;;;;;17.30;99.90;;;;;;4877338;29;19923;-71
2022/09/25 10:58:42;;;;;;;;;;;17.20;99.90;;;;;;4874628;29;19986;-71
2022/09/25 11:01:12;;;;;;;;;;;17.10;99.90;;;;;;4875848;29;19916;-71
2022/09/25 11:03:44;;;;;;;;;;;17.00;99.90;;;;;;4886880;29;19934;-70
2022/09/25 11:06:13;;;;;;;;;;;16.90;99.90;;;;;;4887904;29;20151;-71
2022/09/25 11:08:40;;;;;;;;;;;16.70;99.90;;;;;;4875249;29;19988;-71
2022/09/25 11:11:08;;;;;;;;;;;16.50;99.90;;;;;;4871418;29;19923;-73
2022/09/25 11:13:45;;;;;;;;;;;16.50;99.90;;;;;;4893040;29;19916;-73
2022/09/25 11:16:11;;;;;;;;;;;16.40;99.90;;;;;;4882949;29;20171;-72
2022/09/25 11:19:04;;;;;;;;;;;16.20;99.90;;;;;;4867063;29;19968;-71
2022/09/25 11:21:34;;;;;;;;;;;16.10;99.90;;;;;;4878516;29;19930;-72
2022/09/25 11:24:21;;;;;;;;;;;15.90;99.90;;;;;;4879775;29;20159;-73
2022/09/25 11:26:47;;;;;;;;;;;15.90;99.90;;;;;;4874744;29;19924;-73
2022/09/25 11:29:20;;;;;;;;;;;15.70;99.90;;;;;;4878323;29;19975;-73
2022/09/25 11:31:46;;;;;;;;;;;15.60;99.90;;;;;;4880758;29;19916;-73
2022/09/25 11:34:21;;;;;;;;;;;15.40;99.90;;;;;;4887638;29;19973;-74
2022/09/25 11:36:48;;;;;;;;;;;15.20;99.90;;;;;;4827927;29;1762037;-73
2022/09/25 11:42:48;;;;;;;;;;;14.90;99.90;;;;;;4868213;29;20468;-73
2022/09/25 11:45:22;;;;;;;;;;;14.80;99.90;;;;;;4868367;29;19931;-73
2022/09/25 11:47:57;;;;;;;;;;;14.70;99.90;;;;;;4869584;29;19919;-73
2022/09/25 11:50:43;;;;;;;;;;;14.70;99.90;;;;;;4887107;29;19939;-73
2022/09/25 11:53:28;;;;;;;;;;;14.60;99.90;;;;;;4871392;29;19916;-73
2022/09/25 11:56:02;;;;;;;;;;;14.60;99.90;;;;;;4882898;29;19912;-74
2022/09/25 11:58:43;;;;;;;;;;;14.60;99.90;;;;;;4868042;29;20063;-73
2022/09/25 12:01:21;;;;;;;;;;;14.50;99.90;;;;;;4872991;29;20094;-73
2022/09/25 12:03:56;;;;;;;;;;;14.40;99.90;;;;;;4874037;29;20219;-75
2022/09/25 12:06:47;;;;;;;;;;;14.20;99.90;;;;;;4884264;29;19915;-73
2022/09/25 12:09:20;;;;;;;;;;;14.10;99.90;;;;;;4880156;29;19923;-73
2022/09/25 12:12:08;;;;;;;;;;;13.90;99.90;;;;;;4880472;29;20000;-73
2022/09/25 12:14:48;;;;;;;;;;;13.90;99.90;;;;;;4870298;29;19916;-73
2022/09/25 12:17:24;;;;;;;;;;;13.90;99.90;;;;;;4881794;29;19916;-73
2022/09/25 12:19:58;;;;;;;;;;;14.00;99.90;;;;;;4877205;29;19919;-72
2022/09/25 12:22:34;;;;;;;;;;;14.20;99.90;;;;;;4883939;29;20156;-73
2022/09/25 12:25:08;;;;;;;;;;;14.50;99.90;;;;;;4879643;29;20151;-73
2022/09/25 12:27:34;;;;;;;;;;;15.20;99.90;;;;;;4875240;29;20234;-73
2022/09/25 12:30:11;;;;;;;;;;;15.60;99.90;;;;;;4872136;29;19912;-70
2022/09/25 12:33:01;;;;;;;;;;;15.70;99.90;;;;;;4884030;29;19967;-70
2022/09/25 12:36:16;;;;;;;;;;;15.70;99.90;;;;;;4877999;29;19960;-70
2022/09/25 12:38:54;;;;;;;;;;;15.50;99.90;;;;;;4882792;29;19930;-70
2022/09/25 12:41:23;;;;;;;;;;;15.40;99.90;;;;;;4883649;29;19924;-69
2022/09/25 12:44:07;;;;;;;;;;;15.30;99.90;;;;;;4887307;29;19920;-70
2022/09/25 12:46:40;;;;;;;;;;;15.20;99.90;;;;;;4885333;29;20139;-70
2022/09/25 12:49:11;;;;;;;;;;;15.10;99.90;;;;;;4889866;29;19916;-66
2022/09/25 12:51:45;;;;;;;;;;;14.90;99.90;;;;;;4887627;29;19919;-67
2022/09/25 12:54:11;;;;;;;;;;;14.90;99.90;;;;;;4887911;29;19915;-67
2022/09/25 12:56:50;;;;;;;;;;;14.80;99.90;;;;;;4889992;29;20103;-67
2022/09/25 12:59:55;;;;;;;;;;;14.70;99.90;;;;;;4898981;29;20225;-69
2022/09/25 13:02:36;;;;;;;;;;;14.50;99.90;;;;;;4882315;29;19951;-70
2022/09/25 13:05:07;;;;;;;;;;;14.50;99.90;;;;;;4889353;29;20214;-70
2022/09/25 13:07:38;;;;;;;;;;;14.50;99.90;;;;;;4893901;29;19927;-72
2022/09/25 13:10:18;;;;;;;;;;;14.50;99.90;;;;;;4887052;29;19923;-69
2022/09/25 13:12:44;;;;;;;;;;;14.50;99.90;;;;;;4874794;29;19928;-69
2022/09/25 13:15:22;;;;;;;;;;;14.50;99.90;;;;;;4873314;29;20129;-70
2022/09/25 13:17:48;;;;;;;;;;;14.50;99.90;;;;;;4885536;29;19919;-69
2022/09/25 13:20:26;;;;;;;;;;;14.50;99.90;;;;;;4885570;29;20214;-69
2022/09/25 13:22:58;;;;;;;;;;;14.50;99.90;;;;;;4873756;29;19956;-70
2022/09/25 13:25:24;;;;;;;;;;;14.50;99.90;;;;;;4872217;29;20219;-70
2022/09/25 13:27:52;;;;;;;;;;;14.50;99.90;;;;;;4879740;29;19943;-69
2022/09/25 13:30:27;;;;;;;;;;;14.50;99.90;;;;;;4871301;29;19935;-69
2022/09/25 13:32:54;;;;;;;;;;;14.50;99.90;;;;;;4875283;29;20340;-69
2022/09/25 13:35:21;;;;;;;;;;;14.50;99.90;;;;;;4878607;29;20214;-72
2022/09/25 13:37:47;;;;;;;;;;;14.50;99.90;;;;;;4890378;29;19930;-72
2022/09/25 13:43:22;;;;;;;;;;;14.60;99.90;;;;;;4870541;29;19960;-72
2022/09/25 13:46:13;;;;;;;;;;;14.70;99.90;;;;;;4884391;29;19979;-72
2022/09/25 13:48:39;;;;;;;;;;;14.80;99.90;;;;;;4881031;29;19923;-71
2022/09/25 13:51:17;;;;;;;;;;;14.70;99.90;;;;;;4872610;29;19912;-73
2022/09/25 13:54:04;;;;;;;;;;;14.70;99.90;;;;;;4871250;29;21133;-72
2022/09/25 13:56:32;;;;;;;;;;;14.60;99.90;;;;;;4870752;29;19916;-72
2022/09/25 13:59:02;;;;;;;;;;;14.60;99.90;;;;;;4870899;29;19943;-72
2022/09/25 14:01:36;;;;;;;;;;;14.60;99.90;;;;;;4872581;29;19923;-72
2022/09/25 14:04:09;;;;;;;;;;;14.60;99.90;;;;;;4875413;29;19923;-71
2022/09/25 14:06:34;;;;;;;;;;;14.60;99.90;;;;;;4889028;29;19912;-72
2022/09/25 14:09:21;;;;;;;;;;;14.60;99.90;;;;;;4882605;29;20233;-72
2022/09/25 14:12:30;;;;;;;;;;;14.60;99.90;;;;;;4884032;29;19923;-81
2022/09/25 14:15:03;;;;;;;;;;;14.60;99.90;;;;;;4888884;29;20248;-81
2022/09/25 14:17:30;;;;;;;;;;;14.60;99.90;;;;;;4883383;29;19924;-81
2022/09/25 14:19:57;;;;;;;;;;;14.60;99.90;;;;;;4885123;29;19915;-82
2022/09/25 14:22:39;;;;;;;;;;;14.60;99.90;;;;;;4886778;29;20213;-80
2022/09/25 14:25:23;;;;;;;;;;;14.70;99.90;;;;;;4878844;29;19916;-80
2022/09/25 14:27:50;;;;;;;;;;;14.70;99.90;;;;;;4879747;29;20116;-73
2022/09/25 14:30:16;;;;;;;;;;;14.80;99.90;;;;;;4868593;29;20099;-73
2022/09/25 14:33:16;;;;;;;;;;;14.80;99.90;;;;;;4870894;29;19919;-73
2022/09/25 14:35:50;;;;;;;;;;;14.80;99.90;;;;;;4875501;29;19923;-72
2022/09/25 14:38:34;;;;;;;;;;;14.80;99.90;;;;;;4879410;29;19920;-74
2022/09/25 14:41:18;;;;;;;;;;;14.80;99.90;;;;;;4869780;29;19920;-77
2022/09/25 14:43:54;;;;;;;;;;;14.70;99.90;;;;;;4870955;29;19966;-76
2022/09/25 14:46:20;;;;;;;;;;;14.80;99.90;;;;;;4890401;29;19919;-75
2022/09/25 14:48:50;;;;;;;;;;;14.80;99.90;;;;;;4872251;29;19924;-75
2022/09/25 14:51:28;;;;;;;;;;;14.90;99.90;;;;;;4870729;29;19970;-76
2022/09/25 14:53:56;;;;;;;;;;;14.90;99.90;;;;;;4854689;29;19912;-74
2022/09/25 14:56:23;;;;;;;;;;;14.90;99.90;;;;;;4876326;29;19920;-76
2022/09/25 14:58:56;;;;;;;;;;;14.80;99.90;;;;;;4890634;29;19931;-76
2022/09/25 15:01:29;;;;;;;;;;;14.80;99.90;;;;;;4868031;29;19919;-72